createdAt,value
2018-07-08T00:01:06.219Z,2.70
2018-07-08T00:04:30.787Z,2.77
2018-07-08T00:07:56.427Z,2.83
2018-07-08T00:11:21.011Z,2.80
2018-07-08T00:14:45.459Z,3.10
2018-07-08T00:18:09.997Z,2.80
2018-07-08T00:21:34.452Z,3.10
2018-07-08T00:24:58.974Z,3.35
2018-07-08T00:28:23.478Z,3.00
2018-07-08T00:31:47.991Z,3.25
2018-07-08T00:35:12.513Z,3.67
2018-07-08T00:38:37.050Z,3.37
2018-07-08T00:42:01.302Z,3.25
2018-07-08T00:45:25.814Z,3.72
2018-07-08T00:48:50.351Z,3.77
2018-07-08T00:52:14.883Z,3.58
2018-07-08T00:55:39.452Z,3.27
2018-07-08T00:59:03.960Z,4.33
2018-07-08T01:02:28.469Z,3.80
2018-07-08T01:05:53.066Z,4.78
2018-07-08T01:09:17.569Z,5.53
2018-07-08T01:12:42.131Z,5.50
2018-07-08T01:16:06.803Z,5.70
2018-07-08T01:19:32.490Z,5.37
2018-07-08T01:22:57.019Z,5.43
2018-07-08T01:26:21.619Z,5.13
2018-07-08T01:29:46.131Z,5.10
2018-07-08T01:33:10.633Z,5.57
2018-07-08T01:36:35.111Z,4.83
2018-07-08T01:39:59.654Z,4.83
2018-07-08T01:43:24.123Z,4.60
2018-07-08T01:46:48.627Z,5.17
2018-07-08T01:50:13.169Z,4.73
2018-07-08T01:53:37.696Z,4.53
2018-07-08T01:57:02.269Z,4.00
2018-07-08T02:00:26.861Z,5.10
2018-07-08T02:03:52.697Z,4.50
2018-07-08T02:07:17.492Z,4.77
2018-07-08T02:10:42.052Z,4.70
2018-07-08T02:14:06.520Z,4.23
2018-07-08T02:17:31.042Z,4.40
2018-07-08T02:20:55.500Z,5.47
2018-07-08T02:24:20.439Z,4.33
2018-07-08T02:27:44.857Z,4.57
2018-07-08T02:31:09.583Z,4.07
2018-07-08T02:34:34.179Z,4.50
2018-07-08T02:37:59.978Z,4.40
2018-07-08T02:41:24.392Z,5.50
2018-07-08T02:44:49.118Z,6.10
2018-07-08T02:48:13.604Z,6.07
2018-07-08T02:51:38.054Z,6.37
2018-07-08T02:55:02.456Z,5.90
2018-07-08T02:58:26.985Z,7.43
2018-07-08T03:01:51.386Z,7.17
2018-07-08T03:05:15.808Z,7.10
2018-07-08T03:08:40.294Z,7.37
2018-07-08T03:12:04.760Z,6.43
2018-07-08T03:15:29.163Z,6.90
2018-07-08T03:18:53.678Z,6.97
2018-07-08T03:22:18.124Z,6.67
2018-07-08T03:25:42.517Z,7.27
2018-07-08T03:29:07.009Z,7.93
2018-07-08T03:32:31.398Z,6.70
2018-07-08T03:35:55.863Z,8.13
2018-07-08T03:39:20.302Z,7.93
2018-07-08T03:42:44.788Z,8.73
2018-07-08T03:46:09.275Z,7.13
2018-07-08T03:49:33.727Z,7.33
2018-07-08T03:52:58.197Z,7.20
2018-07-08T03:56:22.736Z,7.60
2018-07-08T03:59:47.153Z,6.73
2018-07-08T04:03:11.610Z,7.03
2018-07-08T04:06:36.646Z,7.10
2018-07-08T04:10:01.106Z,6.67
2018-07-08T04:13:25.583Z,6.50
2018-07-08T04:16:50.091Z,6.87
2018-07-08T04:20:14.551Z,6.87
2018-07-08T04:23:39.037Z,6.53
2018-07-08T04:27:03.639Z,6.50
2018-07-08T04:30:28.618Z,6.73
2018-07-08T04:33:53.159Z,7.47
2018-07-08T04:37:17.694Z,7.03
2018-07-08T04:40:42.179Z,8.10
2018-07-08T04:44:06.310Z,7.77
2018-07-08T04:47:30.916Z,7.70
2018-07-08T04:50:55.379Z,7.60
2018-07-08T04:54:19.892Z,8.03
2018-07-08T04:57:44.401Z,6.97
2018-07-08T05:01:08.922Z,6.70
2018-07-08T05:04:33.446Z,6.77
2018-07-08T05:07:57.892Z,5.53
2018-07-08T05:11:23.052Z,5.47
2018-07-08T05:15:02.487Z,5.17
2018-07-08T05:18:28.572Z,4.97
2018-07-08T05:21:53.663Z,4.37
2018-07-08T05:25:20.054Z,4.43
2018-07-08T05:28:46.309Z,4.67
2018-07-08T05:32:11.740Z,4.37
2018-07-08T05:35:36.783Z,5.10
2018-07-08T05:39:01.515Z,4.47
2018-07-08T05:42:27.173Z,5.10
2018-07-08T05:45:52.045Z,5.23
2018-07-08T05:49:17.837Z,4.83
2018-07-08T05:52:42.967Z,6.27
2018-07-08T05:56:09.440Z,6.90
2018-07-08T05:59:34.859Z,7.37
2018-07-08T06:03:01.290Z,7.27
2018-07-08T06:06:27.365Z,7.43
2018-07-08T06:09:53.464Z,7.60
2018-07-08T06:13:19.008Z,5.90
2018-07-08T06:16:44.449Z,5.77
2018-07-08T06:20:11.080Z,5.83
2018-07-08T06:23:35.754Z,6.47
2018-07-08T06:27:01.793Z,5.50
2018-07-08T06:30:27.357Z,5.12
2018-07-08T06:33:55.487Z,6.12
2018-07-08T06:37:19.907Z,5.97
2018-07-08T06:40:56.400Z,5.83
2018-07-08T06:44:22.198Z,6.58
2018-07-08T06:47:46.870Z,5.25
2018-07-08T06:51:11.473Z,4.45
2018-07-08T06:54:37.530Z,6.05
2018-07-08T06:58:02.008Z,6.42
2018-07-08T07:01:26.563Z,6.53
2018-07-08T07:04:50.962Z,4.97
2018-07-08T07:08:16.141Z,5.08
2018-07-08T07:11:41.021Z,5.20
2018-07-08T07:15:05.637Z,5.33
2018-07-08T07:18:30.114Z,5.03
2018-07-08T07:21:54.691Z,5.33
2018-07-08T07:25:19.128Z,5.92
2018-07-08T07:28:43.566Z,4.85
2018-07-08T07:32:10.655Z,4.60
2018-07-08T07:35:36.323Z,6.15
2018-07-08T07:39:00.854Z,4.70
2018-07-08T07:42:25.336Z,4.75
2018-07-08T07:45:50.375Z,5.70
2018-07-08T07:49:14.957Z,4.37
2018-07-08T07:52:39.462Z,5.03
2018-07-08T07:56:04.164Z,5.20
2018-07-08T07:59:28.692Z,4.50
2018-07-08T08:02:53.158Z,4.58
2018-07-08T08:06:17.691Z,5.05
2018-07-08T08:09:42.191Z,5.35
2018-07-08T08:13:06.689Z,6.25
2018-07-08T08:16:31.166Z,5.80
2018-07-08T08:19:55.637Z,5.78
2018-07-08T08:23:20.124Z,5.45
2018-07-08T08:26:44.715Z,6.12
2018-07-08T08:30:09.173Z,4.40
2018-07-08T08:33:33.674Z,4.95
2018-07-08T08:36:58.153Z,5.05
2018-07-08T08:40:24.691Z,5.25
2018-07-08T08:43:49.172Z,5.35
2018-07-08T08:47:14.046Z,10.18
2018-07-08T08:50:38.600Z,4.83
2018-07-08T08:54:03.110Z,4.28
2018-07-08T08:57:27.706Z,4.78
2018-07-08T09:00:53.962Z,4.42
2018-07-08T09:04:24.141Z,5.30
2018-07-08T09:07:48.622Z,5.10
2018-07-08T09:11:13.125Z,5.30
2018-07-08T09:14:38.038Z,3.85
2018-07-08T09:18:02.574Z,3.85
2018-07-08T09:21:27.222Z,4.20
2018-07-08T09:24:52.271Z,3.83
2018-07-08T09:28:17.647Z,3.30
2018-07-08T09:31:42.288Z,3.00
2018-07-08T09:35:06.744Z,3.08
2018-07-08T09:38:31.349Z,2.80
2018-07-08T09:41:57.490Z,2.50
2018-07-08T09:45:21.892Z,3.10
2018-07-08T09:48:46.310Z,2.60
2018-07-08T09:52:10.791Z,3.00
2018-07-08T09:55:35.181Z,4.37
2018-07-08T09:58:59.890Z,9.03
2018-07-08T10:02:24.372Z,4.05
2018-07-08T10:05:48.852Z,3.95
2018-07-08T10:09:14.757Z,3.08
2018-07-08T10:12:39.290Z,3.35
2018-07-08T10:16:03.725Z,2.98
2018-07-08T10:19:28.527Z,2.80
2018-07-08T10:22:52.922Z,3.47
2018-07-08T10:26:17.377Z,3.12
2018-07-08T10:29:41.849Z,3.67
2018-07-08T10:33:06.364Z,3.25
2018-07-08T10:36:30.883Z,2.75
2018-07-08T10:39:55.335Z,2.50
2018-07-08T10:43:19.846Z,3.25
2018-07-08T10:46:44.436Z,3.10
2018-07-08T10:50:08.996Z,2.65
2018-07-08T10:53:33.521Z,4.33
2018-07-08T10:56:58.121Z,2.92
2018-07-08T11:00:22.638Z,3.00
2018-07-08T11:03:48.251Z,4.67
2018-07-08T11:07:12.631Z,2.92
2018-07-08T11:10:37.100Z,2.70
2018-07-08T11:14:01.585Z,2.77
2018-07-08T11:17:26.142Z,2.47
2018-07-08T11:20:50.647Z,3.25
2018-07-08T11:24:15.128Z,2.87
2018-07-08T11:27:39.655Z,2.50
2018-07-08T11:31:04.138Z,2.90
2018-07-08T11:34:28.594Z,2.50
2018-07-08T11:37:53.124Z,2.62
2018-07-08T11:41:17.672Z,2.65
2018-07-08T11:44:42.277Z,4.33
2018-07-08T11:48:06.965Z,3.15
2018-07-08T11:51:31.531Z,2.58
2018-07-08T11:54:55.977Z,2.50
2018-07-08T11:58:20.539Z,2.52
2018-07-08T12:01:45.062Z,2.80
2018-07-08T12:05:09.584Z,2.33
2018-07-08T12:08:34.118Z,2.25
2018-07-08T12:11:58.624Z,2.58
2018-07-08T12:15:23.106Z,2.80
2018-07-08T12:18:47.639Z,3.67
2018-07-08T12:22:12.279Z,3.05
2018-07-08T12:25:36.726Z,2.33
2018-07-08T12:29:01.260Z,2.52
2018-07-08T12:32:25.831Z,2.87
2018-07-08T12:35:50.386Z,2.30
2018-07-08T12:39:15.328Z,2.62
2018-07-08T12:42:39.957Z,1.90
2018-07-08T12:46:04.875Z,1.90
2018-07-08T12:49:29.426Z,2.30
2018-07-08T12:52:53.911Z,2.00
2018-07-08T12:56:18.380Z,2.35
2018-07-08T12:59:42.903Z,2.17
2018-07-08T13:03:09.829Z,2.10
2018-07-08T13:06:34.357Z,2.65
2018-07-08T13:09:59.204Z,2.55
2018-07-08T13:13:25.493Z,2.05
2018-07-08T13:16:50.137Z,2.72
2018-07-08T13:20:14.668Z,2.20
2018-07-08T13:23:39.906Z,1.98
2018-07-08T13:27:04.510Z,2.17
2018-07-08T13:30:29.057Z,1.85
2018-07-08T13:33:53.612Z,2.00
2018-07-08T13:37:18.132Z,2.42
2018-07-08T13:40:42.704Z,2.47
2018-07-08T13:44:07.482Z,1.80
2018-07-08T13:47:32.074Z,1.95
2018-07-08T13:50:56.550Z,1.98
2018-07-08T13:54:21.086Z,1.90
2018-07-08T13:57:45.579Z,1.90
2018-07-08T14:01:10.125Z,1.90
2018-07-08T14:04:34.635Z,2.08
2018-07-08T14:07:59.078Z,2.22
2018-07-08T14:11:23.668Z,2.00
2018-07-08T14:14:48.178Z,2.10
2018-07-08T14:18:12.602Z,2.20
2018-07-08T14:21:37.135Z,2.27
2018-07-08T14:25:01.639Z,2.27
2018-07-08T14:28:26.221Z,1.70
2018-07-08T14:31:50.755Z,1.90
2018-07-08T14:35:18.060Z,1.65
2018-07-08T14:38:42.652Z,1.70
2018-07-08T14:42:07.352Z,2.12
2018-07-08T14:45:31.917Z,1.90
2018-07-08T14:48:56.412Z,1.75
2018-07-08T14:52:20.916Z,1.80
2018-07-08T14:55:45.692Z,2.00
2018-07-08T14:59:10.394Z,1.92
2018-07-08T15:02:35.355Z,2.00
2018-07-08T15:05:59.892Z,2.12
2018-07-08T15:09:26.665Z,1.90
2018-07-08T15:12:51.077Z,2.12
2018-07-08T15:16:15.587Z,1.60
2018-07-08T15:19:40.239Z,1.90
2018-07-08T15:23:04.843Z,2.40
2018-07-08T15:26:29.350Z,2.00
2018-07-08T15:29:54.107Z,2.60
2018-07-08T15:33:18.586Z,2.10
2018-07-08T15:36:43.020Z,1.80
2018-07-08T15:40:07.615Z,1.80
2018-07-08T15:43:33.132Z,2.00
2018-07-08T15:46:57.667Z,1.87
2018-07-08T15:50:22.059Z,1.98
2018-07-08T15:53:46.512Z,1.95
2018-07-08T15:57:10.969Z,1.92
2018-07-08T16:00:35.634Z,1.90
2018-07-08T16:04:00.161Z,2.08
2018-07-08T16:07:24.615Z,1.80
2018-07-08T16:10:49.112Z,2.55
2018-07-08T16:14:13.606Z,1.90
2018-07-08T16:17:38.134Z,2.33
2018-07-08T16:21:03.212Z,2.10
2018-07-08T16:24:27.748Z,1.62
2018-07-08T16:27:52.280Z,1.90
2018-07-08T16:31:16.765Z,1.87
2018-07-08T16:34:40.925Z,2.30
2018-07-08T16:38:06.164Z,2.35
2018-07-08T16:41:30.657Z,2.10
2018-07-08T16:44:55.781Z,1.77
2018-07-08T16:48:20.254Z,1.80
2018-07-08T16:51:44.793Z,1.87
2018-07-08T16:55:09.272Z,5.37
2018-07-08T16:58:33.801Z,3.70
2018-07-08T17:01:58.722Z,7.45
2018-07-08T17:05:23.253Z,2.02
2018-07-08T17:08:47.720Z,12.68
2018-07-08T17:12:12.126Z,14.03
2018-07-08T17:15:36.632Z,3.77
2018-07-08T17:19:01.174Z,2.00
2018-07-08T17:22:25.729Z,2.35
2018-07-08T17:25:50.751Z,2.22
2018-07-08T17:29:15.389Z,2.60
2018-07-08T17:32:39.964Z,2.20
2018-07-08T17:36:04.476Z,2.33
2018-07-08T17:39:28.989Z,2.30
2018-07-08T17:42:53.523Z,2.05
2018-07-08T17:46:21.557Z,2.52
2018-07-08T17:49:46.242Z,1.87
2018-07-08T17:53:12.046Z,4.97
2018-07-08T17:56:37.252Z,2.33
2018-07-08T18:00:01.852Z,3.22
2018-07-08T18:03:26.281Z,2.12
2018-07-08T18:06:51.816Z,2.55
2018-07-08T18:10:16.245Z,3.47
2018-07-08T18:13:40.807Z,2.72
2018-07-08T18:17:05.295Z,2.85
2018-07-08T18:20:29.771Z,2.25
2018-07-08T18:23:54.420Z,2.30
2018-07-08T18:27:19.267Z,2.20
2018-07-08T18:30:43.813Z,2.50
2018-07-08T18:34:08.422Z,2.30
2018-07-08T18:37:33.008Z,2.00
2018-07-08T18:40:57.465Z,2.40
2018-07-08T18:44:21.991Z,1.98
2018-07-08T18:47:46.422Z,2.52
2018-07-08T18:51:10.921Z,2.12
2018-07-08T18:54:35.482Z,2.30
2018-07-08T18:58:00.271Z,2.75
2018-07-08T19:01:24.720Z,2.27
2018-07-08T19:04:49.329Z,2.37
2018-07-08T19:08:13.960Z,2.45
2018-07-08T19:11:38.489Z,2.55
2018-07-08T19:15:02.940Z,2.22
2018-07-08T19:18:27.407Z,2.20
2018-07-08T19:21:51.916Z,2.10
2018-07-08T19:25:16.412Z,2.20
2018-07-08T19:28:40.977Z,2.80
2018-07-08T19:32:05.750Z,2.67
2018-07-08T19:35:31.107Z,2.55
2018-07-08T19:38:55.755Z,2.25
2018-07-08T19:42:20.229Z,2.05
2018-07-08T19:45:44.833Z,2.15
2018-07-08T19:49:09.261Z,2.45
2018-07-08T19:52:33.661Z,2.40
2018-07-08T19:55:58.950Z,2.42
2018-07-08T19:59:24.416Z,2.58
2018-07-08T20:02:48.857Z,2.47
2018-07-08T20:06:13.308Z,2.50
2018-07-08T20:09:37.761Z,2.67
2018-07-08T20:13:02.249Z,2.60
2018-07-08T20:16:26.856Z,2.87
2018-07-08T20:19:51.375Z,2.60
2018-07-08T20:23:15.862Z,2.25
2018-07-08T20:26:40.400Z,3.02
2018-07-08T20:30:05.029Z,2.90
2018-07-08T20:33:32.862Z,2.60
2018-07-08T20:36:58.155Z,2.62
2018-07-08T20:40:22.695Z,2.42
2018-07-08T20:43:47.206Z,2.95
2018-07-08T20:47:11.685Z,2.62
2018-07-08T20:50:36.275Z,2.77
2018-07-08T20:54:00.742Z,3.10
2018-07-08T20:57:25.210Z,3.08
2018-07-08T21:00:49.755Z,2.72
2018-07-08T21:04:14.218Z,2.67
2018-07-08T21:07:38.719Z,3.25
2018-07-08T21:11:03.374Z,3.35
2018-07-08T21:14:27.970Z,3.15
2018-07-08T21:17:52.451Z,3.12
2018-07-08T21:21:16.944Z,3.20
2018-07-08T21:24:41.557Z,3.37
2018-07-08T21:28:21.929Z,3.33
2018-07-08T21:31:46.714Z,2.95
2018-07-08T21:35:11.198Z,3.42
2018-07-08T21:38:35.927Z,3.87
2018-07-08T21:42:00.437Z,3.60
2018-07-08T21:45:25.110Z,3.33
2018-07-08T21:48:49.586Z,3.85
2018-07-08T21:52:14.016Z,3.95
2018-07-08T21:55:38.476Z,3.67
2018-07-08T21:59:02.928Z,3.22
2018-07-08T22:02:27.425Z,3.80
2018-07-08T22:05:51.894Z,3.75
2018-07-08T22:09:16.379Z,3.98
2018-07-08T22:12:40.822Z,3.08
2018-07-08T22:16:05.508Z,3.02
2018-07-08T22:19:29.960Z,3.85
2018-07-08T22:22:54.888Z,4.03
2018-07-08T22:26:19.327Z,3.30
2018-07-08T22:29:43.797Z,3.47
2018-07-08T22:33:08.287Z,3.75
2018-07-08T22:36:33.002Z,3.47
2018-07-08T22:39:57.526Z,4.17
2018-07-08T22:43:22.203Z,3.70
2018-07-08T22:46:46.743Z,3.77
2018-07-08T22:50:11.234Z,3.83
2018-07-08T22:53:35.734Z,3.70
2018-07-08T22:57:00.169Z,4.10
2018-07-08T23:00:41.854Z,3.75
2018-07-08T23:04:06.855Z,3.75
2018-07-08T23:07:31.369Z,4.22
2018-07-08T23:10:55.897Z,3.67
2018-07-08T23:14:20.366Z,3.47
2018-07-08T23:17:46.016Z,4.12
2018-07-08T23:21:10.515Z,4.00
2018-07-08T23:24:35.047Z,3.60
2018-07-08T23:28:00.263Z,3.70
2018-07-08T23:31:24.750Z,3.92
2018-07-08T23:34:49.232Z,3.45
2018-07-08T23:38:13.808Z,3.77
2018-07-08T23:41:38.344Z,4.47
2018-07-08T23:45:02.807Z,4.40
2018-07-08T23:48:30.196Z,4.55
2018-07-08T23:51:54.593Z,3.90
2018-07-08T23:55:19.019Z,4.42
2018-07-08T23:58:44.537Z,3.65
